Buhara, Uzbekistan
Current Conditions -  °F | °C
As of 5:00 PM on Tuesday 27 Jan 2015 (Local Time) from UTSB Reporting Station
Scattered Clouds Scattered Clouds  
Wind Chill: 29°   Ceiling: Unl
Heat Index: 36°   Visibility: 6mi
Dew Point: 27°   Wind: 8mph
Humidity: 70%   Direction: 20°NNE
Pressure: 30.3"   Gusts: NA
Location:  39.72°N, 64.62°E
Report Text: UTSB 271200Z 02007KT 9999 SCT033 02/M03 Q1026 R01/CLRD70 NOSIG
Loading
Personal Weather Stations






























Interactive Weather Map New forecast layout! Learn more

10-Day Weather Forecast

Advertisements
Track Severe Weather on mobile